Weersoverzicht van METAR-stations binnen 150 km

EHRD - Rotterdam Airport
Afstand tot weerstation: ZO 28 km
Update: 28-09-2022 20:55
Gedeeltelijk bewolkt
Gedeeltelijk bewolkt
 Wind van ZZO
Wind: ZZO 4 km/h
Temperatuur: 8°C
Dauwpunt: 7°C
Luchtvochtigheid: 93%
Luchtdruk: 998 hPa
Bewolking: Gedeeltelijk bewolkt
Zicht: 10 km
2022/09/28 18:55 EHRD 281855Z AUTO 16002KT 9999 NSC 08/07 Q0998 NOSIG
EHSC - Goeree Le Sea (Platform ter hoogte van Zeeland)
Afstand tot weerstation: WZW 36 km
Update: 28-09-2022 20:25

 Wind van WZW
Wind: WZW 20 km/h
Temperatuur: 13°C
Dauwpunt: 7°C
Luchtvochtigheid: 67%
Luchtdruk: 999 hPa
Zicht: 10 km
2022/09/28 18:25 EHSC 281825Z AUTO 25011KT 9999 ///////// 13/07 Q0999 W18/H9
 
EHAM - A'dam Schiphol
Afstand tot weerstation: ONO 51 km
Update: 28-09-2022 20:55
Lichte motregen, Few clouds
Lichte motregen, Few clouds
 Wind van ZZW
Wind: ZZW 6 km/h
Temperatuur: 10°C
Dauwpunt: 8°C
Luchtvochtigheid: 88%
Luchtdruk: 998 hPa
Overzicht: Lichte motregen
Bewolking: Enkele wolken
Zicht: 10 km
Details Bewolking: Enkele wolken 1067 m
2022/09/28 18:55 EHAM 281855Z 21003KT 9999 -DZ FEW035 10/08 Q0998 NOSIG
EHSA - Euro Platform (Ter hoogte van Zeeland)
Afstand tot weerstation: W 58 km
Update: 28-09-2022 20:25

 Wind van ZW
Wind: ZW 17 km/h
Temperatuur: 12°C
Dauwpunt: 8°C
Luchtvochtigheid: 77%
Luchtdruk: 998 hPa
Zicht: 10 km
2022/09/28 18:25 EHSA 281825Z AUTO 22009KT 9999 ///////// 12/08 Q0998 REDZ W18/H9
 
EHPG - P11-B Sea (Platform ter hoogte van Zuid Holland)
Afstand tot weerstation: NW 60 km
Update: 28-09-2022 20:25
Enkele wolken
Enkele wolken
 Wind van Variabel
Wind: Variabel 11 km/h
Temperatuur: 14°C
Dauwpunt: 8°C
Luchtvochtigheid: 67%
Luchtdruk: 998 hPa
Bewolking: Enkele wolken
Zicht: 10 km
Details Bewolking: Enkele wolken 671 m
2022/09/28 18:25 EHPG 281825Z AUTO VRB06KT 9999 FEW022CB 14/08 Q0998
EHWO - Vliegveld Woensdrecht
Afstand tot weerstation: ZZO 65 km
Update: 28-09-2022 20:55
Mist, Helder
Mist, Helder
 Wind van ZW
Wind: ZW 2 km/h
Temperatuur: 7°C
Dauwpunt: 7°C
Luchtvochtigheid: 100%
Luchtdruk: 999 hPa
Overzicht: Mist
Bewolking: Helder
Zicht: 5 km
2022/09/28 18:55 EHWO 281855Z AUTO 22001KT 4800 BR NCD 07/07 Q0999 GRN RMK CB INFO NOT AVBL
 
EHGR - Vliegveld Gilze-Rijen
Afstand tot weerstation: ZO 79 km
Update: 28-09-2022 20:55
Helder
Helder
 Wind van ZZW
Wind: ZZW 2 km/h
Temperatuur: 8°C
Dauwpunt: 7°C
Luchtvochtigheid: 93%
Luchtdruk: 999 hPa
Bewolking: Helder
Zicht: 10 km
2022/09/28 18:55 EHGR 281855Z AUTO 20001KT 9999 NCD 08/07 Q0999 BLU BECMG 4500 BR MIFG
EHQE - Hoorn-A Sea (Platform ter hoogte van Noord Holland)
Afstand tot weerstation: N 103 km
Update: 28-09-2022 20:25
Enkele wolken
Enkele wolken
 Wind van Variabel
Wind: Variabel 0 km/h
Temperatuur: 13°C
Dauwpunt: 6°C
Luchtvochtigheid: 63%
Luchtdruk: 997 hPa
Bewolking: Enkele wolken
Zicht: 10 km
Details Bewolking: Enkele wolken 792 m
2022/09/28 18:25 EHQE 281825Z AUTO /////KT 9999 FEW026 13/06 Q0997
 
EHKD - Marinebasis De Kooy (Den Helder)
Afstand tot weerstation: NNO 114 km
Update: 28-09-2022 20:25
Lichte regen, Zwaar bewolkt
Lichte regen, Zwaar bewolkt
 Wind van Variabel
Wind: Variabel 4 km/h
Temperatuur: 11°C
Dauwpunt: 8°C
Luchtvochtigheid: 82%
Luchtdruk: 997 hPa
Overzicht: Lichte regen
Bewolking: Zwaar bewolkt
Zicht: 10 km
Details Bewolking: Enkele wolken 457 m
Overwegend bewolkt 884 m
Overwegend bewolkt 1006 m
Zwaar bewolkt 2926 m
2022/09/28 18:25 EHKD 281825Z AUTO VRB02KT 9999 -RA FEW015CB BKN029 BKN033 OVC096 11/08 Q0997 BLU TEMPO FEW015 SCT020CB BKN025
EHEH - Vliegveld Eindhoven
Afstand tot weerstation: OZO 115 km
Update: 28-09-2022 20:50
Mist, Helder
Mist, Helder
 Wind van Variabel
Wind: Variabel 4 km/h
Temperatuur: 8°C
Dauwpunt: 7°C
Luchtvochtigheid: 93%
Luchtdruk: 999 hPa
Overzicht: Mist
Bewolking: Helder
Zicht: 2 km
2022/09/28 18:50 EHEH 281850Z AUTO VRB02KT 2300 R21/P3000N BR NCD 08/07 Q0999 YLO BECMG 4000 BR MIFG
 
EHVK - Vliegveld Volkel
Afstand tot weerstation: OZO 124 km
Update: 28-09-2022 20:55
Mist, Zwaar bewolkt
Mist, Zwaar bewolkt
 Wind van Variabel
Wind: Variabel 2 km/h
Temperatuur: 7°C
Dauwpunt: 7°C
Luchtvochtigheid: 100%
Luchtdruk: 999 hPa
Overzicht: Mist
Bewolking: Zwaar bewolkt
Zicht: 0 km
Details Bewolking: Zwaar bewolkt 4877 m
2022/09/28 18:55 EHVK 281855Z AUTO VRB01KT 0350 FG OVC160/// 07/07 Q0999 RED
EHDL - Vliegveld Deelen
Afstand tot weerstation: O 128 km
Update: 28-09-2022 20:55
Gedeeltelijk bewolkt
Gedeeltelijk bewolkt
 Wind van Z
Wind: Z 6 km/h
Temperatuur: 9°C
Dauwpunt: 7°C
Luchtvochtigheid: 87%
Luchtdruk: 998 hPa
Bewolking: Gedeeltelijk bewolkt
Zicht: 10 km
Details Bewolking: Gedeeltelijk bewolkt 6706 m
2022/09/28 18:55 EHDL 281855Z AUTO 17003KT 9999 SCT220/// 09/07 Q0998 BLU